createdAt,value
2018-12-12T00:03:54.899Z,4.30
2018-12-12T00:08:58.194Z,4.73
2018-12-12T00:14:01.448Z,4.60
2018-12-12T00:19:04.723Z,4.90
2018-12-12T00:24:07.945Z,4.83
2018-12-12T00:29:11.151Z,4.13
2018-12-12T00:34:14.365Z,4.40
2018-12-12T00:39:24.262Z,4.13
2018-12-12T00:44:27.487Z,4.30
2018-12-12T00:49:30.703Z,3.83
2018-12-12T00:54:34.478Z,4.73
2018-12-12T00:59:37.641Z,3.60
2018-12-12T01:04:40.809Z,4.67
2018-12-12T01:09:43.954Z,4.40
2018-12-12T01:14:47.188Z,3.90
2018-12-12T01:19:50.391Z,4.03
2018-12-12T01:24:53.605Z,3.27
2018-12-12T01:29:56.776Z,4.50
2018-12-12T01:35:00.005Z,3.13
2018-12-12T01:40:03.238Z,3.73
2018-12-12T01:45:06.431Z,3.50
2018-12-12T01:50:09.730Z,3.30
2018-12-12T01:55:13.041Z,3.80
2018-12-12T02:00:16.304Z,3.60
2018-12-12T02:05:19.515Z,3.60
2018-12-12T02:10:23.163Z,3.27
2018-12-12T02:15:26.367Z,3.40
2018-12-12T02:20:29.609Z,3.10
2018-12-12T02:25:32.818Z,3.33
2018-12-12T02:30:36.090Z,3.87
2018-12-12T02:35:39.313Z,3.60
2018-12-12T02:40:42.532Z,3.60
2018-12-12T02:45:45.886Z,3.30
2018-12-12T02:50:49.064Z,3.67
2018-12-12T02:55:52.331Z,3.43
2018-12-12T03:00:55.512Z,3.27
2018-12-12T03:05:58.693Z,3.17
2018-12-12T03:11:02.138Z,3.17
2018-12-12T03:16:05.663Z,3.47
2018-12-12T03:21:08.878Z,2.97
2018-12-12T03:26:12.107Z,3.07
2018-12-12T03:31:15.313Z,3.90
2018-12-12T03:36:18.490Z,3.13
2018-12-12T03:41:21.706Z,3.40
2018-12-12T03:46:24.884Z,3.13
2018-12-12T03:51:28.092Z,3.77
2018-12-12T03:56:31.333Z,3.70
2018-12-12T04:01:34.719Z,2.73
2018-12-12T04:06:37.946Z,3.17
2018-12-12T04:11:41.252Z,2.93
2018-12-12T04:16:44.504Z,3.17
2018-12-12T04:21:47.700Z,3.40
2018-12-12T04:26:50.914Z,2.60
2018-12-12T04:31:54.483Z,3.20
2018-12-12T04:36:57.746Z,2.67
2018-12-12T04:42:00.932Z,2.93
2018-12-12T04:47:04.236Z,2.40
2018-12-12T04:52:07.443Z,2.50
2018-12-12T04:57:10.688Z,2.90
2018-12-12T05:02:15.864Z,2.60
2018-12-12T05:07:19.083Z,3.10
2018-12-12T05:12:22.346Z,3.07
2018-12-12T05:17:25.569Z,3.07
2018-12-12T05:22:28.765Z,2.63
2018-12-12T05:27:32.183Z,2.63
2018-12-12T05:32:35.409Z,2.57
2018-12-12T05:37:38.616Z,2.30
2018-12-12T05:42:41.976Z,2.93
2018-12-12T05:47:45.191Z,2.83
2018-12-12T05:52:48.565Z,2.93
2018-12-12T05:57:51.797Z,3.23
2018-12-12T06:02:54.996Z,2.43
2018-12-12T06:07:58.481Z,3.30
2018-12-12T06:13:01.758Z,3.13
2018-12-12T06:18:04.998Z,3.23
2018-12-12T06:23:08.332Z,3.53
2018-12-12T06:28:11.569Z,3.47
2018-12-12T06:33:14.799Z,3.77
2018-12-12T06:38:18.045Z,3.20
2018-12-12T06:43:21.247Z,4.23
2018-12-12T06:48:24.495Z,3.50
2018-12-12T06:53:28.584Z,3.37
2018-12-12T06:58:31.846Z,3.80
2018-12-12T07:03:35.448Z,4.63
2018-12-12T07:08:39.069Z,3.93
2018-12-12T07:13:42.290Z,3.90
2018-12-12T07:18:45.563Z,3.53
2018-12-12T07:23:48.812Z,3.67
2018-12-12T07:28:52.076Z,4.20
2018-12-12T07:34:00.858Z,3.77
2018-12-12T07:39:01.307Z,3.60
2018-12-12T07:44:05.036Z,4.00
2018-12-12T07:49:08.707Z,3.70
2018-12-12T07:54:12.086Z,4.00
2018-12-12T07:59:15.350Z,3.93
2018-12-12T08:04:18.610Z,3.30
2018-12-12T08:09:22.535Z,3.30
2018-12-12T08:14:25.989Z,3.67
2018-12-12T08:19:29.421Z,5.33
2018-12-12T08:24:33.565Z,3.87
2018-12-12T08:29:36.775Z,3.80
2018-12-12T08:34:40.073Z,4.30
2018-12-12T08:39:43.309Z,4.03
2018-12-12T08:44:46.555Z,3.30
2018-12-12T08:49:49.952Z,2.80
2018-12-12T08:54:53.244Z,2.93
2018-12-12T08:59:57.553Z,3.00
2018-12-12T09:05:00.791Z,2.90
2018-12-12T09:10:05.019Z,3.10
2018-12-12T09:15:08.294Z,3.30
2018-12-12T09:20:11.548Z,3.80
2018-12-12T09:25:14.810Z,3.60
2018-12-12T09:30:18.005Z,3.00
2018-12-12T09:35:21.585Z,3.10
2018-12-12T09:40:24.801Z,2.90
2018-12-12T09:45:28.028Z,2.73
2018-12-12T09:50:31.903Z,2.70
2018-12-12T09:55:35.119Z,2.83
2018-12-12T10:00:38.405Z,2.20
2018-12-12T10:05:41.671Z,2.40
2018-12-12T10:10:45.257Z,2.93
2018-12-12T10:15:48.517Z,3.20
2018-12-12T10:20:51.821Z,3.50
2018-12-12T10:25:55.289Z,2.80
2018-12-12T10:30:58.549Z,2.93
2018-12-12T10:36:02.073Z,3.07
2018-12-12T10:41:05.379Z,2.73
2018-12-12T10:46:10.194Z,2.90
2018-12-12T10:51:13.468Z,2.57
2018-12-12T10:56:16.737Z,2.40
2018-12-12T11:01:27.686Z,4.97
2018-12-12T11:06:31.006Z,2.70
2018-12-12T11:11:34.458Z,2.57
2018-12-12T11:16:37.873Z,3.33
2018-12-12T11:21:41.123Z,2.57
2018-12-12T11:26:44.398Z,2.53
2018-12-12T11:31:47.653Z,2.20
2018-12-12T11:36:50.926Z,2.40
2018-12-12T11:41:54.222Z,1.90
2018-12-12T11:46:58.040Z,2.70
2018-12-12T11:52:01.735Z,2.63
2018-12-12T11:57:05.309Z,2.20
2018-12-12T12:02:09.344Z,2.47
2018-12-12T12:07:12.622Z,2.50
2018-12-12T12:12:15.888Z,2.57
2018-12-12T12:17:19.939Z,2.07
2018-12-12T12:22:23.170Z,2.50
2018-12-12T12:27:26.472Z,1.80
2018-12-12T12:32:29.789Z,1.87
2018-12-12T12:37:32.987Z,2.10
2018-12-12T12:42:36.488Z,2.10
2018-12-12T12:47:40.300Z,1.70
2018-12-12T12:52:43.612Z,1.90
2018-12-12T12:57:46.845Z,1.77
2018-12-12T13:02:50.154Z,2.00
2018-12-12T13:07:53.394Z,1.80
2018-12-12T13:12:57.090Z,1.37
2018-12-12T13:18:00.694Z,1.53
2018-12-12T13:23:03.982Z,1.60
2018-12-12T13:28:07.345Z,1.97
2018-12-12T13:33:10.657Z,1.77
2018-12-12T13:38:13.917Z,2.17
2018-12-12T13:43:17.476Z,1.97
2018-12-12T13:48:20.883Z,2.00
2018-12-12T13:53:24.174Z,2.57
2018-12-12T13:58:27.427Z,1.80
2018-12-12T14:03:30.711Z,1.83
2018-12-12T14:08:41.207Z,2.77
2018-12-12T14:13:45.516Z,1.90
2018-12-12T14:18:49.139Z,1.70
2018-12-12T14:23:52.592Z,2.07
2018-12-12T14:28:55.916Z,1.90
2018-12-12T14:33:59.159Z,1.50
2018-12-12T14:39:03.013Z,1.60
2018-12-12T14:44:06.486Z,2.00
2018-12-12T14:49:09.763Z,1.90
2018-12-12T14:54:13.161Z,2.03
2018-12-12T14:59:16.455Z,1.90
2018-12-12T15:04:19.763Z,1.97
2018-12-12T15:09:23.173Z,1.77
2018-12-12T15:14:26.394Z,2.30
2018-12-12T15:19:29.698Z,2.03
2018-12-12T15:24:32.972Z,1.43
2018-12-12T15:29:36.317Z,1.90
2018-12-12T15:34:42.432Z,1.90
2018-12-12T15:39:45.370Z,1.80
2018-12-12T15:44:48.680Z,2.30
2018-12-12T15:49:52.258Z,2.13
2018-12-12T15:54:55.477Z,2.50
2018-12-12T15:59:58.962Z,2.30
2018-12-12T16:05:02.214Z,2.57
2018-12-12T16:10:05.854Z,2.60
2018-12-12T16:15:09.120Z,2.27
2018-12-12T16:20:12.880Z,2.03
2018-12-12T16:25:16.329Z,2.67
2018-12-12T16:30:19.674Z,2.53
2018-12-12T16:35:23.057Z,2.80
2018-12-12T16:40:28.090Z,3.10
2018-12-12T16:45:31.494Z,2.50
2018-12-12T16:50:34.797Z,2.80
2018-12-12T16:55:38.038Z,2.70
2018-12-12T17:00:41.294Z,2.50
2018-12-12T17:05:44.720Z,2.90
2018-12-12T17:10:48.094Z,2.73
2018-12-12T17:15:52.073Z,2.27
2018-12-12T17:20:55.319Z,2.70
2018-12-12T17:25:59.070Z,3.00
2018-12-12T17:31:02.891Z,3.33
2018-12-12T17:36:06.114Z,2.70
2018-12-12T17:41:09.712Z,3.00
2018-12-12T17:46:12.997Z,3.20
2018-12-12T17:51:16.554Z,3.40
2018-12-12T17:56:20.239Z,2.63
2018-12-12T18:01:23.556Z,3.33
2018-12-12T18:06:26.841Z,3.20
2018-12-12T18:11:30.192Z,2.93
2018-12-12T18:16:33.742Z,3.07
2018-12-12T18:21:37.066Z,3.07
2018-12-12T18:26:40.308Z,3.70
2018-12-12T18:31:43.618Z,3.40
2018-12-12T18:36:48.735Z,3.17
2018-12-12T18:41:52.029Z,5.10
2018-12-12T18:46:55.405Z,3.80
2018-12-12T18:51:58.709Z,4.00
2018-12-12T18:57:01.978Z,3.37
2018-12-12T19:02:05.381Z,4.03
2018-12-12T19:07:08.631Z,3.50
2018-12-12T19:12:12.001Z,3.57
2018-12-12T19:17:15.383Z,3.47
2018-12-12T19:22:19.142Z,3.60
2018-12-12T19:27:22.523Z,3.60
2018-12-12T19:32:25.823Z,4.23
2018-12-12T19:37:29.870Z,3.63
2018-12-12T19:42:33.337Z,4.10
2018-12-12T19:47:36.844Z,4.50
2018-12-12T19:52:40.265Z,4.00
2018-12-12T19:57:43.789Z,3.53
2018-12-12T20:02:47.869Z,3.00
2018-12-12T20:07:51.173Z,4.47
2018-12-12T20:12:54.610Z,5.10
2018-12-12T20:17:58.019Z,4.90
2018-12-12T20:23:01.362Z,4.80
2018-12-12T20:28:04.770Z,5.00
2018-12-12T20:33:08.677Z,5.43
2018-12-12T20:38:13.187Z,5.13
2018-12-12T20:43:16.530Z,4.80
2018-12-12T20:48:20.749Z,5.33
2018-12-12T20:53:26.548Z,4.93
2018-12-12T20:58:29.869Z,5.47
2018-12-12T21:03:33.261Z,5.37
2018-12-12T21:08:37.394Z,5.70
2018-12-12T21:13:41.444Z,5.60
2018-12-12T21:18:45.540Z,6.13
2018-12-12T21:23:48.994Z,6.77
2018-12-12T21:28:52.339Z,6.40
2018-12-12T21:33:55.823Z,5.73
2018-12-12T21:38:59.493Z,6.73
2018-12-12T21:44:03.079Z,6.87
2018-12-12T21:49:06.545Z,7.10
2018-12-12T21:54:09.970Z,6.80
2018-12-12T21:59:13.697Z,8.10
2018-12-12T22:04:17.061Z,7.53
2018-12-12T22:09:20.453Z,7.10
2018-12-12T22:14:25.185Z,7.33
2018-12-12T22:19:28.535Z,7.50
2018-12-12T22:24:31.915Z,7.07
2018-12-12T22:29:35.825Z,7.90
2018-12-12T22:34:39.683Z,8.17
2018-12-12T22:39:42.955Z,8.60
2018-12-12T22:44:46.433Z,7.67
2018-12-12T22:49:49.738Z,7.90
2018-12-12T22:54:52.983Z,8.33
2018-12-12T22:59:56.216Z,8.17
2018-12-12T23:04:59.550Z,8.13
2018-12-12T23:10:02.837Z,7.30
2018-12-12T23:15:06.109Z,8.07
2018-12-12T23:20:09.347Z,8.70
2018-12-12T23:25:12.532Z,8.47
2018-12-12T23:30:16.071Z,7.43
2018-12-12T23:35:19.500Z,7.97
2018-12-12T23:40:22.927Z,8.00
2018-12-12T23:45:26.152Z,8.57
2018-12-12T23:50:29.363Z,7.47
2018-12-12T23:55:33.106Z,8.07
